sensor_id;sensor_type;location;lat;lon;timestamp;temperature;humidity
14101;DHT22;7127;49.372;8.166;2022-09-12T00:01:07;19.80;55.80
14101;DHT22;7127;49.372;8.166;2022-09-12T00:03:35;19.80;55.90
14101;DHT22;7127;49.372;8.166;2022-09-12T00:06:07;19.80;55.90
14101;DHT22;7127;49.372;8.166;2022-09-12T00:08:34;19.70;56.00
14101;DHT22;7127;49.372;8.166;2022-09-12T00:11:05;19.70;55.90
14101;DHT22;7127;49.372;8.166;2022-09-12T00:13:34;19.70;56.10
14101;DHT22;7127;49.372;8.166;2022-09-12T00:16:01;19.60;56.00
14101;DHT22;7127;49.372;8.166;2022-09-12T00:18:29;19.50;56.00
14101;DHT22;7127;49.372;8.166;2022-09-12T00:21:00;19.50;56.10
14101;DHT22;7127;49.372;8.166;2022-09-12T00:23:27;19.50;56.20
14101;DHT22;7127;49.372;8.166;2022-09-12T00:25:54;19.40;56.20
14101;DHT22;7127;49.372;8.166;2022-09-12T00:28:21;19.40;56.40
14101;DHT22;7127;49.372;8.166;2022-09-12T00:30:49;19.40;56.50
14101;DHT22;7127;49.372;8.166;2022-09-12T00:33:17;19.40;56.50
14101;DHT22;7127;49.372;8.166;2022-09-12T00:35:44;19.30;56.40
14101;DHT22;7127;49.372;8.166;2022-09-12T00:38:12;19.40;56.50
14101;DHT22;7127;49.372;8.166;2022-09-12T00:40:40;19.30;56.60
14101;DHT22;7127;49.372;8.166;2022-09-12T00:43:11;19.30;56.50
14101;DHT22;7127;49.372;8.166;2022-09-12T00:45:39;19.30;56.60
14101;DHT22;7127;49.372;8.166;2022-09-12T00:48:16;19.20;56.70
14101;DHT22;7127;49.372;8.166;2022-09-12T00:50:45;19.20;56.70
14101;DHT22;7127;49.372;8.166;2022-09-12T00:53:12;19.20;56.50
14101;DHT22;7127;49.372;8.166;2022-09-12T00:55:40;19.10;56.50
14101;DHT22;7127;49.372;8.166;2022-09-12T00:58:12;19.20;56.70
14101;DHT22;7127;49.372;8.166;2022-09-12T01:00:40;19.10;56.80
14101;DHT22;7127;49.372;8.166;2022-09-12T01:03:10;19.10;56.70
14101;DHT22;7127;49.372;8.166;2022-09-12T01:05:41;19.10;56.90
14101;DHT22;7127;49.372;8.166;2022-09-12T01:08:11;19.10;56.90
14101;DHT22;7127;49.372;8.166;2022-09-12T01:10:39;19.00;56.80
14101;DHT22;7127;49.372;8.166;2022-09-12T01:13:08;19.00;56.90
14101;DHT22;7127;49.372;8.166;2022-09-12T01:15:37;19.00;56.90
14101;DHT22;7127;49.372;8.166;2022-09-12T01:18:12;19.00;57.00
14101;DHT22;7127;49.372;8.166;2022-09-12T01:20:52;19.00;57.10
14101;DHT22;7127;49.372;8.166;2022-09-12T01:27:16;19.00;57.50
14101;DHT22;7127;49.372;8.166;2022-09-12T01:32:54;19.00;57.30
14101;DHT22;7127;49.372;8.166;2022-09-12T01:35:24;19.00;57.20
14101;DHT22;7127;49.372;8.166;2022-09-12T01:38:00;19.00;57.10
14101;DHT22;7127;49.372;8.166;2022-09-12T01:40:40;18.90;57.00
14101;DHT22;7127;49.372;8.166;2022-09-12T01:43:17;18.90;57.10
14101;DHT22;7127;49.372;8.166;2022-09-12T01:45:49;18.90;57.20
14101;DHT22;7127;49.372;8.166;2022-09-12T01:48:23;18.90;57.00
14101;DHT22;7127;49.372;8.166;2022-09-12T01:50:56;18.90;57.20
14101;DHT22;7127;49.372;8.166;2022-09-12T01:53:29;18.90;57.20
14101;DHT22;7127;49.372;8.166;2022-09-12T01:56:04;18.80;57.10
14101;DHT22;7127;49.372;8.166;2022-09-12T01:58:37;18.80;57.20
14101;DHT22;7127;49.372;8.166;2022-09-12T02:01:08;18.90;57.20
14101;DHT22;7127;49.372;8.166;2022-09-12T02:03:41;18.80;57.20
14101;DHT22;7127;49.372;8.166;2022-09-12T02:06:15;18.80;57.30
14101;DHT22;7127;49.372;8.166;2022-09-12T02:08:46;18.80;57.30
14101;DHT22;7127;49.372;8.166;2022-09-12T02:11:17;18.80;57.30
14101;DHT22;7127;49.372;8.166;2022-09-12T02:13:49;18.70;57.20
14101;DHT22;7127;49.372;8.166;2022-09-12T02:16:21;18.80;57.40
14101;DHT22;7127;49.372;8.166;2022-09-12T02:18:54;18.80;57.40
14101;DHT22;7127;49.372;8.166;2022-09-12T02:21:23;18.70;57.40
14101;DHT22;7127;49.372;8.166;2022-09-12T02:23:54;18.70;57.30
14101;DHT22;7127;49.372;8.166;2022-09-12T02:26:28;18.70;57.40
14101;DHT22;7127;49.372;8.166;2022-09-12T02:28:55;18.70;57.40
14101;DHT22;7127;49.372;8.166;2022-09-12T02:31:27;18.70;57.50
14101;DHT22;7127;49.372;8.166;2022-09-12T02:34:08;18.70;57.50
14101;DHT22;7127;49.372;8.166;2022-09-12T02:36:45;18.70;57.70
14101;DHT22;7127;49.372;8.166;2022-09-12T02:39:14;18.70;57.60
14101;DHT22;7127;49.372;8.166;2022-09-12T02:41:44;18.70;57.50
14101;DHT22;7127;49.372;8.166;2022-09-12T02:44:12;18.60;57.40
14101;DHT22;7127;49.372;8.166;2022-09-12T02:46:41;18.60;57.50
14101;DHT22;7127;49.372;8.166;2022-09-12T02:49:11;18.60;57.50
14101;DHT22;7127;49.372;8.166;2022-09-12T02:51:39;18.60;57.50
14101;DHT22;7127;49.372;8.166;2022-09-12T02:54:06;18.60;57.50
14101;DHT22;7127;49.372;8.166;2022-09-12T02:56:35;18.50;57.50
14101;DHT22;7127;49.372;8.166;2022-09-12T02:59:04;18.50;57.50
14101;DHT22;7127;49.372;8.166;2022-09-12T03:01:45;18.60;57.70
14101;DHT22;7127;49.372;8.166;2022-09-12T03:04:32;18.50;57.80
14101;DHT22;7127;49.372;8.166;2022-09-12T03:07:10;18.50;57.90
14101;DHT22;7127;49.372;8.166;2022-09-12T03:09:44;18.50;57.80
14101;DHT22;7127;49.372;8.166;2022-09-12T03:12:23;18.50;57.70
14101;DHT22;7127;49.372;8.166;2022-09-12T03:15:01;18.50;57.90
14101;DHT22;7127;49.372;8.166;2022-09-12T03:17:43;18.40;57.70
14101;DHT22;7127;49.372;8.166;2022-09-12T03:20:18;18.50;57.90
14101;DHT22;7127;49.372;8.166;2022-09-12T03:22:52;18.50;57.90
14101;DHT22;7127;49.372;8.166;2022-09-12T03:25:23;18.40;57.90
14101;DHT22;7127;49.372;8.166;2022-09-12T03:27:55;18.40;57.80
14101;DHT22;7127;49.372;8.166;2022-09-12T03:30:24;18.40;57.90
14101;DHT22;7127;49.372;8.166;2022-09-12T03:32:53;18.40;57.90
14101;DHT22;7127;49.372;8.166;2022-09-12T03:35:23;18.40;57.90
14101;DHT22;7127;49.372;8.166;2022-09-12T03:37:51;18.30;58.00
14101;DHT22;7127;49.372;8.166;2022-09-12T03:40:18;18.40;58.00
14101;DHT22;7127;49.372;8.166;2022-09-12T03:42:46;18.30;58.00
14101;DHT22;7127;49.372;8.166;2022-09-12T03:45:13;18.30;58.00
14101;DHT22;7127;49.372;8.166;2022-09-12T03:47:41;18.30;58.10
14101;DHT22;7127;49.372;8.166;2022-09-12T03:50:08;18.30;58.10
14101;DHT22;7127;49.372;8.166;2022-09-12T03:52:36;18.30;58.10
14101;DHT22;7127;49.372;8.166;2022-09-12T03:55:04;18.30;58.10
14101;DHT22;7127;49.372;8.166;2022-09-12T03:57:31;18.30;58.10
14101;DHT22;7127;49.372;8.166;2022-09-12T03:59:58;18.20;58.10
14101;DHT22;7127;49.372;8.166;2022-09-12T04:02:26;18.20;58.10
14101;DHT22;7127;49.372;8.166;2022-09-12T04:04:53;18.20;58.10
14101;DHT22;7127;49.372;8.166;2022-09-12T04:07:20;18.20;58.70
14101;DHT22;7127;49.372;8.166;2022-09-12T04:09:48;18.20;58.10
14101;DHT22;7127;49.372;8.166;2022-09-12T04:12:16;18.20;58.10
14101;DHT22;7127;49.372;8.166;2022-09-12T04:14:43;18.20;58.10
14101;DHT22;7127;49.372;8.166;2022-09-12T04:17:09;18.20;58.20
14101;DHT22;7127;49.372;8.166;2022-09-12T04:19:36;18.10;58.10
14101;DHT22;7127;49.372;8.166;2022-09-12T04:22:03;18.10;58.10
14101;DHT22;7127;49.372;8.166;2022-09-12T04:24:30;18.10;58.10
14101;DHT22;7127;49.372;8.166;2022-09-12T04:26:59;18.10;58.10
14101;DHT22;7127;49.372;8.166;2022-09-12T04:29:26;18.10;58.40
14101;DHT22;7127;49.372;8.166;2022-09-12T04:31:54;18.10;58.20
14101;DHT22;7127;49.372;8.166;2022-09-12T04:34:20;18.10;58.20
14101;DHT22;7127;49.372;8.166;2022-09-12T04:36:48;18.10;58.20
14101;DHT22;7127;49.372;8.166;2022-09-12T04:39:15;18.10;58.90
14101;DHT22;7127;49.372;8.166;2022-09-12T04:41:42;18.00;58.30
14101;DHT22;7127;49.372;8.166;2022-09-12T04:44:12;18.00;58.30
14101;DHT22;7127;49.372;8.166;2022-09-12T04:46:42;18.00;58.40
14101;DHT22;7127;49.372;8.166;2022-09-12T04:49:09;18.00;58.40
14101;DHT22;7127;49.372;8.166;2022-09-12T04:51:38;18.00;58.40
14101;DHT22;7127;49.372;8.166;2022-09-12T04:54:07;18.00;58.50
14101;DHT22;7127;49.372;8.166;2022-09-12T04:56:37;18.00;58.50
14101;DHT22;7127;49.372;8.166;2022-09-12T04:59:04;17.90;58.40
14101;DHT22;7127;49.372;8.166;2022-09-12T05:01:33;18.00;58.50
14101;DHT22;7127;49.372;8.166;2022-09-12T05:04:00;17.90;58.40
14101;DHT22;7127;49.372;8.166;2022-09-12T05:06:28;17.90;58.40
14101;DHT22;7127;49.372;8.166;2022-09-12T05:08:56;17.90;58.50
14101;DHT22;7127;49.372;8.166;2022-09-12T05:11:26;18.00;58.60
14101;DHT22;7127;49.372;8.166;2022-09-12T05:13:53;17.90;58.70
14101;DHT22;7127;49.372;8.166;2022-09-12T05:16:21;17.90;58.50
14101;DHT22;7127;49.372;8.166;2022-09-12T05:18:49;18.00;58.70
14101;DHT22;7127;49.372;8.166;2022-09-12T05:21:19;18.00;58.70
14101;DHT22;7127;49.372;8.166;2022-09-12T05:23:50;17.90;58.60
14101;DHT22;7127;49.372;8.166;2022-09-12T05:26:18;18.00;58.80
14101;DHT22;7127;49.372;8.166;2022-09-12T05:28:46;18.00;58.80
14101;DHT22;7127;49.372;8.166;2022-09-12T05:31:15;18.00;58.80
14101;DHT22;7127;49.372;8.166;2022-09-12T05:33:44;18.00;58.70
14101;DHT22;7127;49.372;8.166;2022-09-12T05:36:14;18.00;58.70
14101;DHT22;7127;49.372;8.166;2022-09-12T05:38:42;18.00;58.60
14101;DHT22;7127;49.372;8.166;2022-09-12T05:41:10;18.00;58.50
14101;DHT22;7127;49.372;8.166;2022-09-12T05:43:38;18.00;58.60
14101;DHT22;7127;49.372;8.166;2022-09-12T05:46:07;18.00;58.60
14101;DHT22;7127;49.372;8.166;2022-09-12T05:48:34;17.90;58.50
14101;DHT22;7127;49.372;8.166;2022-09-12T05:51:04;17.90;58.50
14101;DHT22;7127;49.372;8.166;2022-09-12T05:53:36;17.90;58.60
14101;DHT22;7127;49.372;8.166;2022-09-12T05:56:06;17.90;58.70
14101;DHT22;7127;49.372;8.166;2022-09-12T05:58:34;17.90;58.70
14101;DHT22;7127;49.372;8.166;2022-09-12T06:01:05;17.90;58.80
14101;DHT22;7127;49.372;8.166;2022-09-12T06:03:33;18.00;59.00
14101;DHT22;7127;49.372;8.166;2022-09-12T06:06:02;18.00;59.00
14101;DHT22;7127;49.372;8.166;2022-09-12T06:08:30;18.00;59.20
14101;DHT22;7127;49.372;8.166;2022-09-12T06:11:03;18.00;59.10
14101;DHT22;7127;49.372;8.166;2022-09-12T06:13:31;18.00;59.40
14101;DHT22;7127;49.372;8.166;2022-09-12T06:16:05;18.00;59.20
14101;DHT22;7127;49.372;8.166;2022-09-12T06:18:33;18.00;59.60
14101;DHT22;7127;49.372;8.166;2022-09-12T06:21:05;18.00;59.50
14101;DHT22;7127;49.372;8.166;2022-09-12T06:23:32;18.10;59.80
14101;DHT22;7127;49.372;8.166;2022-09-12T06:26:00;18.00;59.70
14101;DHT22;7127;49.372;8.166;2022-09-12T06:28:28;18.10;59.80
14101;DHT22;7127;49.372;8.166;2022-09-12T06:31:00;18.10;59.80
14101;DHT22;7127;49.372;8.166;2022-09-12T06:33:29;18.20;60.10
14101;DHT22;7127;49.372;8.166;2022-09-12T06:36:02;18.20;60.00
14101;DHT22;7127;49.372;8.166;2022-09-12T06:38:29;18.30;60.10
14101;DHT22;7127;49.372;8.166;2022-09-12T06:40:58;18.30;60.00
14101;DHT22;7127;49.372;8.166;2022-09-12T06:43:28;18.40;60.20
14101;DHT22;7127;49.372;8.166;2022-09-12T06:45:55;18.40;60.20
14101;DHT22;7127;49.372;8.166;2022-09-12T06:48:22;18.50;60.20
14101;DHT22;7127;49.372;8.166;2022-09-12T06:50:56;18.50;60.10
14101;DHT22;7127;49.372;8.166;2022-09-12T06:53:23;18.60;60.40
14101;DHT22;7127;49.372;8.166;2022-09-12T06:55:55;18.60;60.20
14101;DHT22;7127;49.372;8.166;2022-09-12T06:58:22;18.70;60.70
14101;DHT22;7127;49.372;8.166;2022-09-12T07:00:51;18.70;60.50
14101;DHT22;7127;49.372;8.166;2022-09-12T07:06:19;18.80;60.70
14101;DHT22;7127;49.372;8.166;2022-09-12T07:08:47;18.90;60.80
14101;DHT22;7127;49.372;8.166;2022-09-12T07:11:16;18.90;60.80
14101;DHT22;7127;49.372;8.166;2022-09-12T07:13:44;19.00;61.00
14101;DHT22;7127;49.372;8.166;2022-09-12T07:16:13;19.00;61.00
14101;DHT22;7127;49.372;8.166;2022-09-12T07:18:40;19.10;61.10
14101;DHT22;7127;49.372;8.166;2022-09-12T07:21:10;19.10;61.10
14101;DHT22;7127;49.372;8.166;2022-09-12T07:23:37;19.20;61.20
14101;DHT22;7127;49.372;8.166;2022-09-12T07:26:05;19.20;61.10
14101;DHT22;7127;49.372;8.166;2022-09-12T07:28:33;19.30;61.20
14101;DHT22;7127;49.372;8.166;2022-09-12T07:31:04;19.40;61.30
14101;DHT22;7127;49.372;8.166;2022-09-12T07:33:33;19.40;61.40
14101;DHT22;7127;49.372;8.166;2022-09-12T07:36:01;19.50;61.50
14101;DHT22;7127;49.372;8.166;2022-09-12T07:38:28;19.60;61.60
14101;DHT22;7127;49.372;8.166;2022-09-12T07:40:55;19.60;61.40
14101;DHT22;7127;49.372;8.166;2022-09-12T07:43:23;19.70;61.50
14101;DHT22;7127;49.372;8.166;2022-09-12T07:45:54;19.80;61.60
14101;DHT22;7127;49.372;8.166;2022-09-12T07:48:21;19.80;61.50
14101;DHT22;7127;49.372;8.166;2022-09-12T07:50:56;19.90;61.50
14101;DHT22;7127;49.372;8.166;2022-09-12T07:53:24;20.00;61.60
14101;DHT22;7127;49.372;8.166;2022-09-12T07:55:54;20.00;61.40
14101;DHT22;7127;49.372;8.166;2022-09-12T07:58:21;20.10;61.30
14101;DHT22;7127;49.372;8.166;2022-09-12T08:00:48;20.20;61.30
14101;DHT22;7127;49.372;8.166;2022-09-12T08:03:16;20.20;61.10
14101;DHT22;7127;49.372;8.166;2022-09-12T08:05:43;20.20;61.10
14101;DHT22;7127;49.372;8.166;2022-09-12T08:08:11;20.30;61.10
14101;DHT22;7127;49.372;8.166;2022-09-12T08:10:38;20.30;60.90
14101;DHT22;7127;49.372;8.166;2022-09-12T08:13:05;20.40;60.70
14101;DHT22;7127;49.372;8.166;2022-09-12T08:15:33;20.50;60.80
14101;DHT22;7127;49.372;8.166;2022-09-12T08:18:00;20.50;60.60
14101;DHT22;7127;49.372;8.166;2022-09-12T08:20:27;20.60;60.70
14101;DHT22;7127;49.372;8.166;2022-09-12T08:22:54;20.60;60.50
14101;DHT22;7127;49.372;8.166;2022-09-12T08:25:23;20.70;60.50
14101;DHT22;7127;49.372;8.166;2022-09-12T08:27:50;20.70;60.20
14101;DHT22;7127;49.372;8.166;2022-09-12T08:30:17;20.80;60.00
14101;DHT22;7127;49.372;8.166;2022-09-12T08:32:44;20.80;60.00
14101;DHT22;7127;49.372;8.166;2022-09-12T08:35:12;20.80;59.70
14101;DHT22;7127;49.372;8.166;2022-09-12T08:37:39;20.90;59.70
14101;DHT22;7127;49.372;8.166;2022-09-12T08:40:13;20.90;59.70
14101;DHT22;7127;49.372;8.166;2022-09-12T08:42:51;21.00;59.80
14101;DHT22;7127;49.372;8.166;2022-09-12T08:45:24;21.00;59.60
14101;DHT22;7127;49.372;8.166;2022-09-12T08:47:55;21.10;59.80
14101;DHT22;7127;49.372;8.166;2022-09-12T08:50:23;21.10;59.60
14101;DHT22;7127;49.372;8.166;2022-09-12T08:52:56;21.20;59.60
14101;DHT22;7127;49.372;8.166;2022-09-12T08:55:35;21.30;59.70
14101;DHT22;7127;49.372;8.166;2022-09-12T08:58:14;21.30;59.50
14101;DHT22;7127;49.372;8.166;2022-09-12T09:00:50;21.40;59.40
14101;DHT22;7127;49.372;8.166;2022-09-12T09:10:34;21.60;59.20
14101;DHT22;7127;49.372;8.166;2022-09-12T09:13:31;21.70;59.10
14101;DHT22;7127;49.372;8.166;2022-09-12T09:16:21;21.70;59.20
14101;DHT22;7127;49.372;8.166;2022-09-12T09:18:55;21.80;59.00
14101;DHT22;7127;49.372;8.166;2022-09-12T09:28:05;22.00;58.80
14101;DHT22;7127;49.372;8.166;2022-09-12T09:30:50;22.00;58.80
14101;DHT22;7127;49.372;8.166;2022-09-12T09:33:21;22.10;58.80
14101;DHT22;7127;49.372;8.166;2022-09-12T09:35:55;22.20;58.70
14101;DHT22;7127;49.372;8.166;2022-09-12T09:38:33;22.20;58.50
14101;DHT22;7127;49.372;8.166;2022-09-12T09:41:16;22.20;58.50
14101;DHT22;7127;49.372;8.166;2022-09-12T09:43:45;22.30;58.60
14101;DHT22;7127;49.372;8.166;2022-09-12T09:46:18;22.40;58.70
14101;DHT22;7127;49.372;8.166;2022-09-12T09:48:49;22.40;58.60
14101;DHT22;7127;49.372;8.166;2022-09-12T09:51:22;22.50;58.50
14101;DHT22;7127;49.372;8.166;2022-09-12T10:00:40;22.80;57.80
14101;DHT22;7127;49.372;8.166;2022-09-12T10:03:31;22.80;57.80
14101;DHT22;7127;49.372;8.166;2022-09-12T10:06:06;22.90;57.70
14101;DHT22;7127;49.372;8.166;2022-09-12T10:08:44;22.90;57.90
14101;DHT22;7127;49.372;8.166;2022-09-12T10:11:18;23.00;58.00
14101;DHT22;7127;49.372;8.166;2022-09-12T10:14:29;23.10;57.70
14101;DHT22;7127;49.372;8.166;2022-09-12T10:16:57;23.10;57.30
14101;DHT22;7127;49.372;8.166;2022-09-12T10:19:34;23.20;57.50
14101;DHT22;7127;49.372;8.166;2022-09-12T10:22:02;23.20;57.30
14101;DHT22;7127;49.372;8.166;2022-09-12T10:24:32;23.30;57.60
14101;DHT22;7127;49.372;8.166;2022-09-12T10:27:15;23.30;57.40
14101;DHT22;7127;49.372;8.166;2022-09-12T10:29:45;23.50;56.80
14101;DHT22;7127;49.372;8.166;2022-09-12T10:32:20;23.50;57.00
14101;DHT22;7127;49.372;8.166;2022-09-12T10:34:53;23.50;57.00
14101;DHT22;7127;49.372;8.166;2022-09-12T10:37:25;23.50;57.00
14101;DHT22;7127;49.372;8.166;2022-09-12T10:39:55;23.50;57.00
14101;DHT22;7127;49.372;8.166;2022-09-12T10:42:45;23.60;57.00
14101;DHT22;7127;49.372;8.166;2022-09-12T10:45:27;23.60;56.80
14101;DHT22;7127;49.372;8.166;2022-09-12T10:47:56;23.70;56.50
14101;DHT22;7127;49.372;8.166;2022-09-12T10:50:28;23.70;56.50
14101;DHT22;7127;49.372;8.166;2022-09-12T10:53:13;23.70;56.50
14101;DHT22;7127;49.372;8.166;2022-09-12T10:55:44;23.80;56.40
14101;DHT22;7127;49.372;8.166;2022-09-12T11:01:08;23.80;56.00
14101;DHT22;7127;49.372;8.166;2022-09-12T11:03:59;23.80;56.20
14101;DHT22;7127;49.372;8.166;2022-09-12T11:06:38;23.90;56.30
14101;DHT22;7127;49.372;8.166;2022-09-12T11:09:14;23.90;56.20
14101;DHT22;7127;49.372;8.166;2022-09-12T11:11:52;23.90;56.30
14101;DHT22;7127;49.372;8.166;2022-09-12T11:14:34;24.00;56.00
14101;DHT22;7127;49.372;8.166;2022-09-12T11:17:12;24.00;55.80
14101;DHT22;7127;49.372;8.166;2022-09-12T11:23:06;24.10;55.60
14101;DHT22;7127;49.372;8.166;2022-09-12T11:25:40;24.10;55.80
14101;DHT22;7127;49.372;8.166;2022-09-12T11:28:24;24.20;55.90
14101;DHT22;7127;49.372;8.166;2022-09-12T11:31:13;24.20;55.40
14101;DHT22;7127;49.372;8.166;2022-09-12T11:33:45;24.30;55.10
14101;DHT22;7127;49.372;8.166;2022-09-12T11:36:26;24.30;55.40
14101;DHT22;7127;49.372;8.166;2022-09-12T11:39:09;24.40;55.10
14101;DHT22;7127;49.372;8.166;2022-09-12T11:41:40;24.40;55.00
14101;DHT22;7127;49.372;8.166;2022-09-12T11:44:14;24.40;55.10
14101;DHT22;7127;49.372;8.166;2022-09-12T11:46:42;24.50;54.80
14101;DHT22;7127;49.372;8.166;2022-09-12T11:49:17;24.60;54.90
14101;DHT22;7127;49.372;8.166;2022-09-12T11:51:51;24.60;54.60
14101;DHT22;7127;49.372;8.166;2022-09-12T11:54:24;24.70;54.70
14101;DHT22;7127;49.372;8.166;2022-09-12T11:57:00;24.70;54.60
14101;DHT22;7127;49.372;8.166;2022-09-12T11:59:39;24.70;54.50
14101;DHT22;7127;49.372;8.166;2022-09-12T12:02:11;24.80;54.30
14101;DHT22;7127;49.372;8.166;2022-09-12T12:04:46;24.90;54.40
14101;DHT22;7127;49.372;8.166;2022-09-12T12:07:17;24.90;54.40
14101;DHT22;7127;49.372;8.166;2022-09-12T12:09:52;24.90;54.40
14101;DHT22;7127;49.372;8.166;2022-09-12T12:12:22;25.00;54.10
14101;DHT22;7127;49.372;8.166;2022-09-12T12:14:53;25.10;53.90
14101;DHT22;7127;49.372;8.166;2022-09-12T12:17:22;25.10;53.70
14101;DHT22;7127;49.372;8.166;2022-09-12T12:19:58;25.10;53.40
14101;DHT22;7127;49.372;8.166;2022-09-12T12:22:25;25.20;52.90
14101;DHT22;7127;49.372;8.166;2022-09-12T12:25:05;25.30;53.00
14101;DHT22;7127;49.372;8.166;2022-09-12T12:27:48;25.40;52.30
14101;DHT22;7127;49.372;8.166;2022-09-12T12:33:54;25.40;51.60
14101;DHT22;7127;49.372;8.166;2022-09-12T12:36:43;25.50;51.30
14101;DHT22;7127;49.372;8.166;2022-09-12T12:39:54;25.50;51.20
14101;DHT22;7127;49.372;8.166;2022-09-12T12:46:05;25.60;51.40
14101;DHT22;7127;49.372;8.166;2022-09-12T12:48:52;25.70;51.80
14101;DHT22;7127;49.372;8.166;2022-09-12T12:54:47;25.80;51.10
14101;DHT22;7127;49.372;8.166;2022-09-12T12:57:18;25.80;50.80
14101;DHT22;7127;49.372;8.166;2022-09-12T12:59:49;25.90;51.20
14101;DHT22;7127;49.372;8.166;2022-09-12T13:02:28;25.90;50.50
14101;DHT22;7127;49.372;8.166;2022-09-12T13:05:05;26.00;50.50
14101;DHT22;7127;49.372;8.166;2022-09-12T13:07:54;26.00;50.60
14101;DHT22;7127;49.372;8.166;2022-09-12T13:15:27;26.10;49.40
14101;DHT22;7127;49.372;8.166;2022-09-12T13:20:58;26.10;49.30
14101;DHT22;7127;49.372;8.166;2022-09-12T13:23:35;26.10;49.30
14101;DHT22;7127;49.372;8.166;2022-09-12T13:26:03;26.10;48.90
14101;DHT22;7127;49.372;8.166;2022-09-12T13:32:15;26.20;48.90
14101;DHT22;7127;49.372;8.166;2022-09-12T13:35:03;26.20;48.40
14101;DHT22;7127;49.372;8.166;2022-09-12T13:37:44;26.20;48.40
14101;DHT22;7127;49.372;8.166;2022-09-12T13:40:29;26.30;48.40
14101;DHT22;7127;49.372;8.166;2022-09-12T13:43:11;26.30;48.10
14101;DHT22;7127;49.372;8.166;2022-09-12T13:45:40;26.30;48.00
14101;DHT22;7127;49.372;8.166;2022-09-12T13:48:17;26.30;48.40
14101;DHT22;7127;49.372;8.166;2022-09-12T13:50:52;26.30;48.00
14101;DHT22;7127;49.372;8.166;2022-09-12T13:53:22;26.40;47.90
14101;DHT22;7127;49.372;8.166;2022-09-12T13:55:52;26.40;48.00
14101;DHT22;7127;49.372;8.166;2022-09-12T13:58:23;26.40;47.80
14101;DHT22;7127;49.372;8.166;2022-09-12T14:01:02;26.40;47.70
14101;DHT22;7127;49.372;8.166;2022-09-12T14:03:31;26.40;47.20
14101;DHT22;7127;49.372;8.166;2022-09-12T14:06:18;26.40;47.60
14101;DHT22;7127;49.372;8.166;2022-09-12T14:08:46;26.40;47.50
14101;DHT22;7127;49.372;8.166;2022-09-12T14:11:23;26.40;47.60
14101;DHT22;7127;49.372;8.166;2022-09-12T14:13:51;26.50;47.20
14101;DHT22;7127;49.372;8.166;2022-09-12T14:16:39;26.40;47.50
14101;DHT22;7127;49.372;8.166;2022-09-12T14:19:10;26.50;47.00
14101;DHT22;7127;49.372;8.166;2022-09-12T14:21:45;26.50;47.30
14101;DHT22;7127;49.372;8.166;2022-09-12T14:24:33;26.50;47.20
14101;DHT22;7127;49.372;8.166;2022-09-12T14:27:03;26.50;47.00
14101;DHT22;7127;49.372;8.166;2022-09-12T14:29:34;26.60;47.10
14101;DHT22;7127;49.372;8.166;2022-09-12T14:32:21;26.60;47.00
14101;DHT22;7127;49.372;8.166;2022-09-12T14:35:12;26.60;46.90
14101;DHT22;7127;49.372;8.166;2022-09-12T14:37:50;26.70;46.50
14101;DHT22;7127;49.372;8.166;2022-09-12T14:40:24;26.60;46.50
14101;DHT22;7127;49.372;8.166;2022-09-12T14:43:03;26.70;46.70
14101;DHT22;7127;49.372;8.166;2022-09-12T14:45:35;26.60;46.60
14101;DHT22;7127;49.372;8.166;2022-09-12T14:48:12;26.60;46.50
14101;DHT22;7127;49.372;8.166;2022-09-12T14:50:43;26.60;46.40
14101;DHT22;7127;49.372;8.166;2022-09-12T14:53:24;26.60;46.40
14101;DHT22;7127;49.372;8.166;2022-09-12T14:55:57;26.70;46.00
14101;DHT22;7127;49.372;8.166;2022-09-12T14:58:28;26.60;46.00
14101;DHT22;7127;49.372;8.166;2022-09-12T15:00:58;26.60;46.00
14101;DHT22;7127;49.372;8.166;2022-09-12T15:03:29;26.60;46.00
14101;DHT22;7127;49.372;8.166;2022-09-12T15:05:57;26.60;45.70
14101;DHT22;7127;49.372;8.166;2022-09-12T15:08:28;26.60;45.60
14101;DHT22;7127;49.372;8.166;2022-09-12T15:10:56;26.60;45.40
14101;DHT22;7127;49.372;8.166;2022-09-12T15:13:38;26.60;45.50
14101;DHT22;7127;49.372;8.166;2022-09-12T15:16:08;26.60;44.90
14101;DHT22;7127;49.372;8.166;2022-09-12T15:18:37;26.60;45.30
14101;DHT22;7127;49.372;8.166;2022-09-12T15:21:09;26.50;45.30
14101;DHT22;7127;49.372;8.166;2022-09-12T15:23:49;26.50;45.00
14101;DHT22;7127;49.372;8.166;2022-09-12T15:26:21;26.60;45.10
14101;DHT22;7127;49.372;8.166;2022-09-12T15:28:52;26.50;45.10
14101;DHT22;7127;49.372;8.166;2022-09-12T15:31:23;26.50;45.00
14101;DHT22;7127;49.372;8.166;2022-09-12T15:33:51;26.50;44.80
14101;DHT22;7127;49.372;8.166;2022-09-12T15:36:20;26.50;44.90
14101;DHT22;7127;49.372;8.166;2022-09-12T15:38:51;26.50;44.90
14101;DHT22;7127;49.372;8.166;2022-09-12T15:41:21;26.50;44.70
14101;DHT22;7127;49.372;8.166;2022-09-12T15:43:48;26.40;44.60
14101;DHT22;7127;49.372;8.166;2022-09-12T15:46:17;26.40;44.50
14101;DHT22;7127;49.372;8.166;2022-09-12T15:48:44;26.40;44.50
14101;DHT22;7127;49.372;8.166;2022-09-12T15:51:12;26.40;44.50
14101;DHT22;7127;49.372;8.166;2022-09-12T15:53:42;26.40;44.50
14101;DHT22;7127;49.372;8.166;2022-09-12T15:56:13;26.20;44.40
14101;DHT22;7127;49.372;8.166;2022-09-12T15:58:40;26.30;44.30
14101;DHT22;7127;49.372;8.166;2022-09-12T16:01:09;26.30;44.40
14101;DHT22;7127;49.372;8.166;2022-09-12T16:03:41;26.30;44.30
14101;DHT22;7127;49.372;8.166;2022-09-12T16:06:15;26.20;44.20
14101;DHT22;7127;49.372;8.166;2022-09-12T16:08:43;26.20;44.00
14101;DHT22;7127;49.372;8.166;2022-09-12T16:11:20;26.20;44.20
14101;DHT22;7127;49.372;8.166;2022-09-12T16:13:47;26.10;44.00
14101;DHT22;7127;49.372;8.166;2022-09-12T16:16:15;26.10;44.20
14101;DHT22;7127;49.372;8.166;2022-09-12T16:18:42;26.10;44.30
14101;DHT22;7127;49.372;8.166;2022-09-12T16:21:10;26.10;44.30
14101;DHT22;7127;49.372;8.166;2022-09-12T16:23:37;26.10;44.10
14101;DHT22;7127;49.372;8.166;2022-09-12T16:26:09;26.00;44.20
14101;DHT22;7127;49.372;8.166;2022-09-12T16:28:41;26.00;44.20
14101;DHT22;7127;49.372;8.166;2022-09-12T16:31:11;26.00;44.10
14101;DHT22;7127;49.372;8.166;2022-09-12T16:33:46;26.00;44.20
14101;DHT22;7127;49.372;8.166;2022-09-12T16:36:15;25.90;44.00
14101;DHT22;7127;49.372;8.166;2022-09-12T16:38:46;26.00;44.20
14101;DHT22;7127;49.372;8.166;2022-09-12T16:41:14;26.00;44.10
14101;DHT22;7127;49.372;8.166;2022-09-12T16:47:01;25.80;43.70
14101;DHT22;7127;49.372;8.166;2022-09-12T16:49:28;25.80;44.20
14101;DHT22;7127;49.372;8.166;2022-09-12T16:51:56;25.80;44.30
14101;DHT22;7127;49.372;8.166;2022-09-12T16:54:23;25.70;44.40
14101;DHT22;7127;49.372;8.166;2022-09-12T16:56:50;25.70;44.50
14101;DHT22;7127;49.372;8.166;2022-09-12T16:59:18;25.70;44.60
14101;DHT22;7127;49.372;8.166;2022-09-12T17:01:46;25.60;44.60
14101;DHT22;7127;49.372;8.166;2022-09-12T17:07:48;25.60;44.70
14101;DHT22;7127;49.372;8.166;2022-09-12T17:10:15;25.50;44.80
14101;DHT22;7127;49.372;8.166;2022-09-12T17:12:43;25.40;44.80
14101;DHT22;7127;49.372;8.166;2022-09-12T17:15:10;25.40;44.90
14101;DHT22;7127;49.372;8.166;2022-09-12T17:17:37;25.30;44.90
14101;DHT22;7127;49.372;8.166;2022-09-12T17:20:05;25.30;44.90